Time,TemperatureF,DewpointF,PressureIn,WindDirection,WindDirectionDegrees,WindSpeedMPH,WindSpeedGustMPH,Humidity,HourlyPrecipIn,Conditions,Clouds,dailyrainin,SoftwareType,DateUTC
2013-01-08 00:22:00,29.2,25.0,30.41,SE,124,0.0,7.0,85,0.00,,,0.00,weatherlink.com 1.10,2013-01-08 05:22:00,
2013-01-08 00:37:00,29.3,25.0,30.41,South,172,0.0,6.0,85,0.00,,,0.00,weatherlink.com 1.10,2013-01-08 05:37:00,
2013-01-08 00:52:00,29.2,26.0,30.41,South,188,0.0,4.0,86,0.00,,,0.00,weatherlink.com 1.10,2013-01-08 05:52:00,
2013-01-08 01:07:00,29.0,25.0,30.41,SW,214,4.0,4.0,86,0.00,,,0.00,weatherlink.com 1.10,2013-01-08 06:07:00,
2013-01-08 01:22:00,29.0,26.0,30.40,SSE,149,4.0,5.0,87,0.00,,,0.00,weatherlink.com 1.10,2013-01-08 06:22:00,
2013-01-08 01:37:00,29.2,26.0,30.40,SSW,211,2.0,4.0,87,0.00,,,0.00,weatherlink.com 1.10,2013-01-08 06:37:00,
2013-01-08 01:52:00,29.4,26.0,30.39,SE,143,0.0,3.0,87,0.00,,,0.00,weatherlink.com 1.10,2013-01-08 06:52:00,
2013-01-08 02:07:00,29.4,26.0,30.40,SW,214,0.0,3.0,87,0.00,,,0.00,weatherlink.com 1.10,2013-01-08 07:07:00,
2013-01-08 02:22:00,29.2,26.0,30.39,ESE,115,1.0,3.0,88,0.00,,,0.00,weatherlink.com 1.10,2013-01-08 07:22:00,
2013-01-08 02:52:00,28.8,26.0,30.39,WSW,253,5.0,5.0,89,0.00,,,0.00,weatherlink.com 1.10,2013-01-08 07:52:00,
2013-01-08 03:07:00,28.9,26.0,30.39,SW,231,3.0,5.0,89,0.00,,,0.00,weatherlink.com 1.10,2013-01-08 08:07:00,
2013-01-08 03:22:00,29.1,26.0,30.38,SSW,198,0.0,3.0,88,0.00,,,0.00,weatherlink.com 1.10,2013-01-08 08:22:00,
2013-01-08 03:37:00,29.2,26.0,30.37,South,190,2.0,6.0,87,0.00,,,0.00,weatherlink.com 1.10,2013-01-08 08:37:00,
2013-01-08 03:52:00,29.3,26.0,30.36,SSE,148,0.0,3.0,86,0.00,,,0.00,weatherlink.com 1.10,2013-01-08 08:52:00,
2013-01-08 04:07:00,29.6,26.0,30.36,ESE,123,1.0,3.0,85,0.00,,,0.00,weatherlink.com 1.10,2013-01-08 09:07:00,
2013-01-08 04:22:00,29.8,25.0,30.35,ESE,116,2.0,3.0,83,0.00,,,0.00,weatherlink.com 1.10,2013-01-08 09:22:00,
2013-01-08 04:37:00,29.8,25.0,30.35,ENE,72,1.0,2.0,83,0.00,,,0.00,weatherlink.com 1.10,2013-01-08 09:37:00,
2013-01-08 04:52:00,30.3,25.0,30.35,SSE,148,0.0,7.0,82,0.00,,,0.00,weatherlink.com 1.10,2013-01-08 09:52:00,
2013-01-08 05:07:00,31.2,26.0,30.35,SW,231,0.0,4.0,80,0.00,,,0.00,weatherlink.com 1.10,2013-01-08 10:07:00,
2013-01-08 05:23:00,31.9,26.0,30.35,South,186,6.0,8.0,79,0.00,,,0.00,weatherlink.com 1.10,2013-01-08 10:23:00,
2013-01-08 05:38:00,32.3,26.0,30.35,SSW,197,3.0,7.0,78,0.00,,,0.00,weatherlink.com 1.10,2013-01-08 10:38:00,
2013-01-08 05:53:00,32.4,26.0,30.34,WSW,252,3.0,10.0,78,0.00,,,0.00,weatherlink.com 1.10,2013-01-08 10:53:00,
2013-01-08 06:08:00,33.1,27.0,30.35,West,267,1.0,8.0,77,0.00,,,0.00,weatherlink.com 1.10,2013-01-08 11:08:00,
2013-01-08 06:24:00,33.2,27.0,30.35,SW,226,3.0,13.0,77,0.00,,,0.00,weatherlink.com 1.10,2013-01-08 11:24:00,
2013-01-08 06:38:00,33.4,27.0,30.36,SW,233,0.0,10.0,76,0.00,,,0.00,weatherlink.com 1.10,2013-01-08 11:38:00,
2013-01-08 06:53:00,33.4,27.0,30.36,SSW,205,4.0,10.0,77,0.00,,,0.00,weatherlink.com 1.10,2013-01-08 11:53:00,
2013-01-08 07:08:00,33.3,27.0,30.36,SW,224,5.0,9.0,77,0.00,,,0.00,weatherlink.com 1.10,2013-01-08 12:08:00,
2013-01-08 07:23:00,33.5,27.0,30.36,SW,231,3.0,9.0,77,0.00,,,0.00,weatherlink.com 1.10,2013-01-08 12:23:00,
2013-01-08 07:38:00,33.8,27.0,30.36,SW,232,1.0,6.0,76,0.00,,,0.00,weatherlink.com 1.10,2013-01-08 12:38:00,
2013-01-08 07:53:00,34.3,27.0,30.37,SSW,212,4.0,10.0,75,0.00,,,0.00,weatherlink.com 1.10,2013-01-08 12:53:00,
2013-01-08 08:08:00,35.1,27.0,30.38,SSW,207,3.0,12.0,73,0.00,,,0.00,weatherlink.com 1.10,2013-01-08 13:08:00,
2013-01-08 08:23:00,36.3,27.0,30.38,SSW,203,1.0,13.0,70,0.00,,,0.00,weatherlink.com 1.10,2013-01-08 13:23:00,
2013-01-08 08:38:00,37.2,28.0,30.38,SSW,210,3.0,9.0,69,0.00,,,0.00,weatherlink.com 1.10,2013-01-08 13:38:00,
2013-01-08 08:53:00,38.0,27.0,30.39,SW,233,8.0,14.0,66,0.00,,,0.00,weatherlink.com 1.10,2013-01-08 13:53:00,
2013-01-08 09:08:00,38.8,27.0,30.39,West,273,6.0,16.0,64,0.00,,,0.00,weatherlink.com 1.10,2013-01-08 14:08:00,
2013-01-08 09:23:00,39.5,28.0,30.38,SE,125,2.0,16.0,63,0.00,,,0.00,weatherlink.com 1.10,2013-01-08 14:23:00,
2013-01-08 09:38:00,39.8,27.0,30.39,WNW,289,8.0,16.0,61,0.00,,,0.00,weatherlink.com 1.10,2013-01-08 14:38:00,
2013-01-08 09:53:00,40.0,27.0,30.39,SSE,162,5.0,19.0,61,0.00,,,0.00,weatherlink.com 1.10,2013-01-08 14:53:00,
2013-01-08 10:08:00,40.1,27.0,30.38,SSW,210,3.0,21.0,60,0.00,,,0.00,weatherlink.com 1.10,2013-01-08 15:08:00,
2013-01-08 10:23:00,40.7,27.0,30.37,SSW,210,3.0,20.0,59,0.00,,,0.00,weatherlink.com 1.10,2013-01-08 15:23:00,
2013-01-08 10:38:00,41.2,27.0,30.37,SSW,208,8.0,17.0,57,0.00,,,0.00,weatherlink.com 1.10,2013-01-08 15:38:00,
2013-01-08 10:53:00,41.5,27.0,30.37,SSE,165,7.0,17.0,57,0.00,,,0.00,weatherlink.com 1.10,2013-01-08 15:53:00,
2013-01-08 11:08:00,42.0,27.0,30.36,SSE,155,2.0,18.0,55,0.00,,,0.00,weatherlink.com 1.10,2013-01-08 16:08:00,
2013-01-08 11:23:00,42.4,27.0,30.35,NNW,328,7.0,15.0,55,0.00,,,0.00,weatherlink.com 1.10,2013-01-08 16:23:00,
2013-01-08 11:38:00,42.9,27.0,30.34,WSW,248,7.0,19.0,54,0.00,,,0.00,weatherlink.com 1.10,2013-01-08 16:38:00,
2013-01-08 11:54:00,43.9,28.0,30.33,SW,229,6.0,15.0,53,0.00,,,0.00,weatherlink.com 1.10,2013-01-08 16:54:00,
2013-01-08 12:09:00,44.2,27.0,30.33,NW,307,12.0,19.0,52,0.00,,,0.00,weatherlink.com 1.10,2013-01-08 17:09:00,
2013-01-08 12:24:00,44.6,27.0,30.31,WNW,300,3.0,16.0,51,0.00,,,0.00,weatherlink.com 1.10,2013-01-08 17:24:00,
2013-01-08 12:39:00,45.1,27.0,30.31,SW,230,4.0,16.0,50,0.00,,,0.00,weatherlink.com 1.10,2013-01-08 17:39:00,
2013-01-08 12:54:00,45.5,27.0,30.31,SW,214,4.0,14.0,49,0.00,,,0.00,weatherlink.com 1.10,2013-01-08 17:54:00,
2013-01-08 13:09:00,45.7,27.0,30.30,SSW,201,9.0,14.0,49,0.00,,,0.00,weatherlink.com 1.10,2013-01-08 18:09:00,
2013-01-08 13:24:00,45.7,27.0,30.30,WNW,292,7.0,14.0,49,0.00,,,0.00,weatherlink.com 1.10,2013-01-08 18:24:00,
2013-01-08 13:39:00,46.4,27.0,30.30,SSE,149,4.0,14.0,48,0.00,,,0.00,weatherlink.com 1.10,2013-01-08 18:39:00,
2013-01-08 13:54:00,46.7,28.0,30.30,SSW,212,4.0,11.0,48,0.00,,,0.00,weatherlink.com 1.10,2013-01-08 18:54:00,
2013-01-08 14:09:00,46.8,28.0,30.30,WNW,294,2.0,11.0,48,0.00,,,0.00,weatherlink.com 1.10,2013-01-08 19:09:00,
2013-01-08 14:24:00,46.7,27.0,30.31,SW,233,6.0,12.0,46,0.00,,,0.00,weatherlink.com 1.10,2013-01-08 19:24:00,
2013-01-08 14:39:00,46.6,27.0,30.32,WNW,293,9.0,12.0,46,0.00,,,0.00,weatherlink.com 1.10,2013-01-08 19:39:00,
2013-01-08 14:54:00,46.7,27.0,30.32,WNW,287,1.0,10.0,47,0.00,,,0.00,weatherlink.com 1.10,2013-01-08 19:54:00,
2013-01-08 15:09:00,46.8,27.0,30.32,SSW,205,3.0,14.0,46,0.00,,,0.00,weatherlink.com 1.10,2013-01-08 20:09:00,
2013-01-08 15:24:00,46.7,27.0,30.33,West,260,4.0,7.0,46,0.00,,,0.00,weatherlink.com 1.10,2013-01-08 20:24:00,
2013-01-08 15:39:00,46.2,27.0,30.32,WSW,253,6.0,7.0,47,0.00,,,0.00,weatherlink.com 1.10,2013-01-08 20:39:00,
2013-01-08 15:54:00,46.4,27.0,30.33,West,263,3.0,9.0,47,0.00,,,0.00,weatherlink.com 1.10,2013-01-08 20:54:00,
2013-01-08 16:09:00,45.8,27.0,30.33,SSW,210,2.0,6.0,48,0.00,,,0.00,weatherlink.com 1.10,2013-01-08 21:09:00,
2013-01-08 16:24:00,45.1,27.0,30.33,North,4,1.0,7.0,50,0.00,,,0.00,weatherlink.com 1.10,2013-01-08 21:24:00,
2013-01-08 16:39:00,44.9,27.0,30.33,SSW,212,1.0,7.0,50,0.00,,,0.00,weatherlink.com 1.10,2013-01-08 21:39:00,
2013-01-08 16:54:00,44.5,27.0,30.34,SSW,211,0.0,7.0,50,0.00,,,0.00,weatherlink.com 1.10,2013-01-08 21:54:00,
2013-01-08 17:09:00,44.3,27.0,30.34,West,275,3.0,8.0,51,0.00,,,0.00,weatherlink.com 1.10,2013-01-08 22:09:00,
2013-01-08 17:24:00,44.1,27.0,30.34,West,274,2.0,8.0,51,0.00,,,0.00,weatherlink.com 1.10,2013-01-08 22:24:00,
2013-01-08 17:39:00,43.9,27.0,30.35,SW,226,1.0,7.0,52,0.00,,,0.00,weatherlink.com 1.10,2013-01-08 22:39:00,
2013-01-08 17:54:00,43.5,27.0,30.36,NW,318,2.0,7.0,53,0.00,,,0.00,weatherlink.com 1.10,2013-01-08 22:54:00,
2013-01-08 18:09:00,42.8,27.0,30.36,SW,226,0.0,3.0,54,0.00,,,0.00,weatherlink.com 1.10,2013-01-08 23:09:00,
2013-01-08 18:24:00,42.3,27.0,30.36,SSW,206,4.0,6.0,55,0.00,,,0.00,weatherlink.com 1.10,2013-01-08 23:24:00,
2013-01-08 18:39:00,41.9,27.0,30.37,SW,222,0.0,4.0,57,0.00,,,0.00,weatherlink.com 1.10,2013-01-08 23:39:00,
2013-01-08 18:54:00,41.6,28.0,30.37,SSW,206,1.0,3.0,58,0.00,,,0.00,weatherlink.com 1.10,2013-01-08 23:54:00,
2013-01-08 19:09:00,41.2,28.0,30.38,WSW,252,2.0,5.0,59,0.00,,,0.00,weatherlink.com 1.10,2013-01-09 00:09:00,
2013-01-08 19:24:00,40.9,28.0,30.38,South,172,1.0,4.0,60,0.00,,,0.00,weatherlink.com 1.10,2013-01-09 00:24:00,
2013-01-08 19:39:00,40.8,28.0,30.38,SW,217,3.0,5.0,61,0.00,,,0.00,weatherlink.com 1.10,2013-01-09 00:39:00,
2013-01-08 19:54:00,40.2,28.0,30.39,SSW,199,1.0,3.0,62,0.00,,,0.00,weatherlink.com 1.10,2013-01-09 00:54:00,
2013-01-08 20:09:00,39.9,28.0,30.39,SSW,208,2.0,3.0,63,0.00,,,0.00,weatherlink.com 1.10,2013-01-09 01:09:00,
2013-01-08 20:24:00,39.8,28.0,30.39,South,177,2.0,4.0,64,0.00,,,0.00,weatherlink.com 1.10,2013-01-09 01:24:00,
2013-01-08 20:39:00,40.2,28.0,30.39,SW,231,6.0,9.0,63,0.00,,,0.00,weatherlink.com 1.10,2013-01-09 01:39:00,
2013-01-08 20:54:00,40.4,29.0,30.39,NW,309,3.0,6.0,64,0.00,,,0.00,weatherlink.com 1.10,2013-01-09 01:54:00,
2013-01-08 21:09:00,40.3,29.0,30.39,West,277,1.0,8.0,64,0.00,,,0.00,weatherlink.com 1.10,2013-01-09 02:09:00,
2013-01-08 21:24:00,40.2,28.0,30.39,West,266,2.0,6.0,63,0.00,,,0.00,weatherlink.com 1.10,2013-01-09 02:24:00,
2013-01-08 21:39:00,40.0,28.0,30.39,WNW,293,3.0,10.0,63,0.00,,,0.00,weatherlink.com 1.10,2013-01-09 02:39:00,
2013-01-08 21:54:00,39.7,28.0,30.39,West,276,1.0,9.0,63,0.00,,,0.00,weatherlink.com 1.10,2013-01-09 02:54:00,
2013-01-08 22:09:00,39.6,28.0,30.39,WNW,296,0.0,9.0,63,0.00,,,0.00,weatherlink.com 1.10,2013-01-09 03:09:00,
2013-01-08 22:24:00,39.3,28.0,30.39,West,275,2.0,6.0,64,0.00,,,0.00,weatherlink.com 1.10,2013-01-09 03:24:00,
2013-01-08 22:39:00,39.1,28.0,30.39,WSW,242,1.0,5.0,64,0.00,,,0.00,weatherlink.com 1.10,2013-01-09 03:39:00,
2013-01-08 22:54:00,38.8,27.0,30.39,SW,234,2.0,8.0,64,0.00,,,0.00,weatherlink.com 1.10,2013-01-09 03:54:00,
2013-01-08 23:09:00,38.5,28.0,30.39,West,263,1.0,6.0,65,0.00,,,0.00,weatherlink.com 1.10,2013-01-09 04:09:00,
2013-01-08 23:24:00,38.3,27.0,30.39,WNW,284,4.0,7.0,65,0.00,,,0.00,weatherlink.com 1.10,2013-01-09 04:24:00,
2013-01-08 23:39:00,38.4,27.0,30.40,WSW,256,2.0,9.0,64,0.00,,,0.00,weatherlink.com 1.10,2013-01-09 04:39:00,
2013-01-08 23:54:00,38.3,27.0,30.40,West,272,3.0,7.0,64,0.00,,,0.00,weatherlink.com 1.10,2013-01-09 04:54:00,